Time;durP1;ratioP1;P1;durP2;ratioP2;P2;SDS_P1;SDS_P2;PMS_P1;PMS_P2;Temp;Humidity;BMP_temperature;BMP_pressure;BME280_temperature;BME280_humidity;BME280_pressure;Samples;Min_cycle;Max_cycle;Signal;HPM_P1;HPM_P2
2023/11/29 00:00:19;;;;;;;;;59.50;48.25;;;;;11.21;100.00;100283.78;2105467;28;46877;-64
2023/11/29 00:01:19;;;;;;;;;54.50;43.75;;;;;11.20;100.00;100276.72;2105414;28;46443;-62
2023/11/29 00:02:19;;;;;;;;;56.25;46.75;;;;;11.16;100.00;100273.28;2104692;28;46501;-62
2023/11/29 00:03:20;;;;;;;;;56.25;47.00;;;;;11.15;100.00;100276.84;2105482;28;46324;-64
2023/11/29 00:04:20;;;;;;;;;56.00;46.75;;;;;11.13;100.00;100275.16;2105751;27;47304;-63
2023/11/29 00:05:20;;;;;;;;;56.75;47.00;;;;;11.16;100.00;100267.09;2104715;28;45867;-64
2023/11/29 00:06:21;;;;;;;;;53.25;46.00;;;;;11.16;100.00;100277.72;2100917;28;46671;-64
2023/11/29 00:07:21;;;;;;;;;54.50;44.50;;;;;11.15;100.00;100268.00;2095936;28;46630;-64
2023/11/29 00:08:21;;;;;;;;;54.00;44.50;;;;;11.16;100.00;100275.06;2096269;28;46460;-64
2023/11/29 00:09:21;;;;;;;;;55.50;45.25;;;;;11.16;100.00;100272.41;2113513;27;45996;-63
2023/11/29 00:10:22;;;;;;;;;54.75;45.75;;;;;11.15;100.00;100271.53;2113015;27;46181;-63
2023/11/29 00:11:23;;;;;;;;;56.75;45.75;;;;;11.14;100.00;100268.94;2105696;27;46747;-66
2023/11/29 00:12:24;;;;;;;;;53.20;45.40;;;;;11.13;100.00;100268.06;2105511;27;46873;-63
2023/11/29 00:13:24;;;;;;;;;54.25;44.50;;;;;11.11;100.00;100271.69;2105330;27;46662;-65
2023/11/29 00:14:24;;;;;;;;;54.75;44.50;;;;;11.10;100.00;100276.13;2105775;27;46342;-62
2023/11/29 00:15:25;;;;;;;;;49.00;41.00;;;;;11.10;100.00;100272.59;2105412;27;46334;-63
2023/11/29 00:16:25;;;;;;;;;52.00;42.25;;;;;11.10;100.00;100272.59;2105840;28;46730;-61
2023/11/29 00:17:26;;;;;;;;;48.75;40.75;;;;;11.09;100.00;100273.53;2105382;28;45852;-64
2023/11/29 00:18:26;;;;;;;;;51.75;43.00;;;;;11.09;100.00;100271.75;2096619;28;46165;-65
2023/11/29 00:19:27;;;;;;;;;50.75;41.50;;;;;11.08;100.00;100270.00;2096585;28;46420;-64
2023/11/29 00:20:27;;;;;;;;;48.25;41.00;;;;;11.09;100.00;100265.56;2105591;27;46239;-66
2023/11/29 00:21:28;;;;;;;;;33.50;30.25;;;;;11.09;100.00;100266.44;2101118;28;46417;-66
2023/11/29 00:22:29;;;;;;;;;45.75;38.50;;;;;11.10;100.00;100276.13;2104947;28;46924;-65
2023/11/29 00:23:31;;;;;;;;;49.20;42.00;;;;;11.09;100.00;100261.13;2102972;27;46530;-64
2023/11/29 00:24:31;;;;;;;;;49.60;41.20;;;;;11.10;100.00;100267.31;2097963;27;46428;-63
2023/11/29 00:25:31;;;;;;;;;49.75;42.50;;;;;11.10;100.00;100260.19;2104782;27;46091;-63
2023/11/29 00:26:32;;;;;;;;;47.00;39.75;;;;;11.09;100.00;100261.13;2105967;27;46621;-63
2023/11/29 00:27:32;;;;;;;;;48.50;40.50;;;;;11.11;100.00;100266.38;2105920;28;46670;-64
2023/11/29 00:28:33;;;;;;;;;48.00;39.75;;;;;11.09;100.00;100262.91;2104159;27;46616;-63
2023/11/29 00:29:33;;;;;;;;;45.75;39.25;;;;;11.09;100.00;100265.56;2101024;27;46530;-64
2023/11/29 00:30:33;;;;;;;;;51.00;42.25;;;;;11.08;100.00;100261.16;2105333;27;46255;-64
2023/11/29 00:31:34;;;;;;;;;43.25;37.50;;;;;11.10;100.00;100260.19;2095699;28;46620;-60
2023/11/29 00:32:34;;;;;;;;;47.00;39.25;;;;;11.11;100.00;100255.75;2095704;28;46865;-64
2023/11/29 00:33:35;;;;;;;;;26.25;20.75;;;;;11.07;100.00;100254.13;2105303;28;45788;-62
2023/11/29 00:34:35;;;;;;;;;51.50;40.50;;;;;11.02;100.00;100256.91;2104963;28;46832;-64
2023/11/29 00:35:35;;;;;;;;;45.25;38.25;;;;;10.99;100.00;100251.69;2104892;28;46614;-63
2023/11/29 00:36:36;;;;;;;;;44.75;38.00;;;;;10.93;100.00;100243.94;2102005;28;46289;-63
2023/11/29 00:37:36;;;;;;;;;45.50;39.50;;;;;11.02;100.00;100246.28;2105507;28;46585;-62
2023/11/29 00:38:36;;;;;;;;;45.25;39.00;;;;;11.01;100.00;100249.84;2105298;27;46207;-66
2023/11/29 00:39:37;;;;;;;;;49.00;40.75;;;;;11.03;100.00;100244.50;2105683;27;46457;-65
2023/11/29 00:40:37;;;;;;;;;45.25;39.50;;;;;11.02;100.00;100242.75;2105310;27;46874;-67
2023/11/29 00:41:38;;;;;;;;;41.25;36.50;;;;;11.01;100.00;100239.22;2105483;27;45923;-63
2023/11/29 00:42:38;;;;;;;;;46.50;40.00;;;;;11.03;100.00;100240.06;2105451;28;46578;-65
2023/11/29 00:43:39;;;;;;;;;48.50;40.75;;;;;11.03;100.00;100240.06;2105595;27;46453;-60
2023/11/29 00:44:39;;;;;;;;;47.00;39.00;;;;;11.05;100.00;100242.66;2096748;28;46459;-66
2023/11/29 00:45:39;;;;;;;;;48.50;39.25;;;;;11.05;100.00;100247.97;2099472;28;46225;-64
2023/11/29 00:46:40;;;;;;;;;42.00;38.00;;;;;11.02;100.00;100234.78;2100263;27;46378;-62
2023/11/29 00:47:40;;;;;;;;;46.50;41.00;;;;;11.04;100.00;100241.78;2102333;28;46147;-62
2023/11/29 00:48:40;;;;;;;;;52.75;43.00;;;;;11.03;100.00;100244.50;2097698;28;46585;-61
2023/11/29 00:49:41;;;;;;;;;53.50;44.00;;;;;11.01;100.00;100239.22;2105038;27;46257;-63
2023/11/29 00:50:41;;;;;;;;;54.00;44.75;;;;;11.00;100.00;100237.50;2105847;28;46424;-62
2023/11/29 00:51:42;;;;;;;;;52.25;44.50;;;;;10.95;100.00;100236.78;2113094;27;46322;-62
2023/11/29 00:52:42;;;;;;;;;50.25;42.75;;;;;10.93;100.00;100238.63;2111695;27;46660;-60
2023/11/29 00:53:43;;;;;;;;;54.75;46.50;;;;;10.88;100.00;100240.53;2104169;28;46583;-62
2023/11/29 00:54:44;;;;;;;;;49.40;41.20;;;;;10.85;100.00;100236.19;2105025;27;46572;-61
2023/11/29 00:55:44;;;;;;;;;47.75;39.75;;;;;10.81;100.00;100231.91;2106137;28;46310;-65
2023/11/29 00:56:44;;;;;;;;;52.75;43.25;;;;;10.79;100.00;100236.34;2105633;27;46442;-62
2023/11/29 00:57:45;;;;;;;;;54.75;45.75;;;;;10.77;100.00;100237.31;2105251;28;46256;-62
2023/11/29 00:58:45;;;;;;;;;56.25;47.00;;;;;10.74;100.00;100240.06;2105235;28;46241;-62
2023/11/29 00:59:46;;;;;;;;;54.50;46.00;;;;;10.73;100.00;100241.00;2105500;28;46429;-63
2023/11/29 01:00:46;;;;;;;;;54.25;45.00;;;;;10.69;100.00;100236.72;2105498;27;46448;-63
2023/11/29 01:01:46;;;;;;;;;56.00;47.25;;;;;10.69;100.00;100245.53;2104845;27;46337;-63
2023/11/29 01:02:47;;;;;;;;;54.75;44.00;;;;;10.69;100.00;100240.22;2104534;27;46538;-63
2023/11/29 01:03:47;;;;;;;;;56.50;45.25;;;;;10.68;100.00;100238.50;2105775;27;46306;-62
2023/11/29 01:04:48;;;;;;;;;53.25;43.00;;;;;10.68;100.00;100237.63;2105591;27;46716;-65
2023/11/29 01:05:48;;;;;;;;;50.50;43.25;;;;;10.66;100.00;100232.34;2104692;28;46449;-65
2023/11/29 01:06:48;;;;;;;;;51.00;43.25;;;;;10.66;100.00;100244.72;2096581;28;46509;-64
2023/11/29 01:07:49;;;;;;;;;54.25;45.25;;;;;10.64;100.00;100242.13;2092925;28;46167;-64
2023/11/29 01:08:49;;;;;;;;;53.50;45.75;;;;;10.63;100.00;100234.22;2095275;28;45919;-64
2023/11/29 01:09:49;;;;;;;;;50.50;43.50;;;;;10.63;100.00;100244.84;2096254;28;46390;-63
2023/11/29 01:10:49;;;;;;;;;50.00;43.25;;;;;10.64;100.00;100249.22;2102628;28;46231;-63
2023/11/29 01:11:50;;;;;;;;;54.25;44.75;;;;;10.63;100.00;100242.19;2103976;27;46752;-65
2023/11/29 01:12:50;;;;;;;;;54.75;43.75;;;;;10.64;100.00;100243.91;2105690;28;46495;-65
2023/11/29 01:13:50;;;;;;;;;50.25;43.00;;;;;10.63;100.00;100234.22;2104719;28;46765;-64
2023/11/29 01:14:51;;;;;;;;;48.50;39.00;;;;;10.63;100.00;100235.09;2105235;28;46078;-65
2023/11/29 01:15:51;;;;;;;;;48.75;39.50;;;;;10.62;100.00;100238.66;2103157;28;46510;-65
2023/11/29 01:16:52;;;;;;;;;48.75;41.50;;;;;10.61;100.00;100235.13;2104889;27;46481;-64
2023/11/29 01:17:55;;;;;;;;;52.60;42.80;;;;;10.62;100.00;100233.34;2104779;28;46388;-64
2023/11/29 01:18:55;;;;;;;;;50.00;42.40;;;;;10.60;100.00;100230.75;2104926;28;46968;-63
2023/11/29 01:19:55;;;;;;;;;51.00;42.75;;;;;10.59;100.00;100229.00;2095307;28;46593;-65
2023/11/29 01:20:56;;;;;;;;;39.25;34.50;;;;;10.58;100.00;100234.38;2104897;28;45406;-64
2023/11/29 01:21:56;;;;;;;;;45.25;38.75;;;;;10.57;100.00;100224.66;2105261;28;46173;-66
2023/11/29 01:22:56;;;;;;;;;17.50;16.00;;;;;10.58;100.00;100234.38;2105269;27;46384;-67
2023/11/29 01:23:56;;;;;;;;;46.25;39.75;;;;;10.60;100.00;100225.44;2104914;28;44972;-66
2023/11/29 01:24:57;;;;;;;;;45.00;39.25;;;;;10.60;100.00;100225.44;2083383;28;46669;-62
2023/11/29 01:25:57;;;;;;;;;47.75;41.75;;;;;10.60;100.00;100222.78;2087456;28;46568;-65
2023/11/29 01:26:57;;;;;;;;;46.00;39.75;;;;;10.63;100.00;100224.47;2102705;28;46479;-67
2023/11/29 01:27:58;;;;;;;;;45.00;38.50;;;;;10.63;100.00;100223.59;2104984;28;46527;-65
2023/11/29 01:28:58;;;;;;;;;46.00;40.00;;;;;10.63;100.00;100224.47;2104886;28;46209;-66
2023/11/29 01:29:59;;;;;;;;;49.00;41.00;;;;;10.64;100.00;100225.34;2105587;27;45995;-66
2023/11/29 01:30:59;;;;;;;;;37.75;35.25;;;;;10.64;100.00;100217.38;2105805;27;46629;-66
2023/11/29 01:32:00;;;;;;;;;39.25;35.75;;;;;10.65;100.00;100219.13;2104335;28;46685;-65
2023/11/29 01:33:00;;;;;;;;;43.50;38.25;;;;;10.65;100.00;100219.97;2104986;28;46575;-64
2023/11/29 01:34:00;;;;;;;;;42.25;37.50;;;;;10.66;100.00;100226.16;2104600;28;46302;-67
2023/11/29 01:35:01;;;;;;;;;45.00;39.00;;;;;10.66;100.00;100213.75;2095871;28;46803;-63
2023/11/29 01:36:08;;;;;;;;;41.75;36.00;;;;;10.67;100.00;100217.28;2099060;28;46637;-63
2023/11/29 01:37:09;;;;;;;;;39.60;35.60;;;;;10.67;100.00;100219.94;2103852;27;46276;-63
2023/11/29 01:38:09;;;;;;;;;36.75;35.00;;;;;10.68;100.00;100221.69;2105267;28;46098;-64
2023/11/29 01:39:14;;;;;;;;;39.75;35.50;;;;;10.70;100.00;100227.81;2105037;27;46705;-64
2023/11/29 01:40:14;;;;;;;;;41.00;37.20;;;;;10.68;100.00;100222.56;2104431;27;46747;-61
2023/11/29 01:41:15;;;;;;;;;37.00;34.75;;;;;10.68;100.00;100222.56;2104578;27;46519;-65
2023/11/29 01:42:15;;;;;;;;;32.75;31.75;;;;;10.70;100.00;100227.81;2105069;27;46104;-66
2023/11/29 01:43:15;;;;;;;;;38.00;35.50;;;;;10.71;100.00;100225.13;2103451;28;46576;-64
2023/11/29 01:44:16;;;;;;;;;37.75;32.75;;;;;10.71;100.00;100227.78;2102691;28;46501;-66
2023/11/29 01:45:16;;;;;;;;;38.00;35.00;;;;;10.72;100.00;100226.84;2103975;27;46547;-63
2023/11/29 01:46:16;;;;;;;;;42.00;36.25;;;;;10.73;100.00;100228.59;2104713;28;47231;-64
2023/11/29 01:47:17;;;;;;;;;40.50;36.50;;;;;10.74;100.00;100225.03;2103779;28;46924;-62
2023/11/29 01:48:20;;;;;;;;;40.00;34.75;;;;;10.77;100.00;100226.72;2103959;28;46282;-63
2023/11/29 01:49:20;;;;;;;;;34.00;32.00;;;;;10.67;100.00;100225.25;2105094;27;46488;-61
2023/11/29 01:50:25;;;;;;;;;39.00;34.75;;;;;10.72;100.00;100228.66;2105226;27;46620;-62
2023/11/29 01:51:25;;;;;;;;;37.80;35.00;;;;;10.74;100.00;100225.03;2101681;27;46741;-63
2023/11/29 01:52:26;;;;;;;;;40.00;35.75;;;;;10.76;100.00;100230.28;2103950;28;46572;-63
2023/11/29 01:53:28;;;;;;;;;42.00;36.00;;;;;10.77;100.00;100224.06;2104115;28;46706;-61
2023/11/29 01:54:28;;;;;;;;;39.60;35.00;;;;;10.75;100.00;100229.41;2098151;28;46850;-63
2023/11/29 01:55:32;;;;;;;;;36.50;32.25;;;;;10.75;100.00;100226.75;2105181;27;46511;-62
2023/11/29 01:56:32;;;;;;;;;33.20;31.80;;;;;10.72;100.00;100220.69;2105115;27;46875;-64
2023/11/29 01:57:33;;;;;;;;;31.00;31.00;;;;;10.69;100.00;100220.78;2104507;28;46364;-62
2023/11/29 01:58:33;;;;;;;;;37.25;34.75;;;;;10.69;100.00;100226.09;2095679;28;46215;-63
2023/11/29 01:59:34;;;;;;;;;35.75;34.00;;;;;10.70;100.00;100230.47;2095594;28;46238;-63
2023/11/29 02:00:34;;;;;;;;;33.00;29.60;;;;;10.71;100.00;100229.56;2104784;27;46391;-63
2023/11/29 02:01:35;;;;;;;;;37.00;33.00;;;;;10.70;100.00;100220.72;2105385;27;46479;-64
2023/11/29 02:02:35;;;;;;;;;25.25;22.25;;;;;10.70;100.00;100222.53;2103110;27;46279;-62
2023/11/29 02:03:36;;;;;;;;;31.75;30.50;;;;;10.70;100.00;100220.72;2104856;27;46404;-64
2023/11/29 02:04:36;;;;;;;;;27.75;27.25;;;;;10.70;100.00;100215.44;2105366;28;46372;-63
2023/11/29 02:05:37;;;;;;;;;31.80;29.80;;;;;10.74;100.00;100217.06;2104900;27;46080;-63
2023/11/29 02:06:39;;;;;;;;;31.25;31.25;;;;;10.79;100.00;100216.91;2105064;28;46580;-64
2023/11/29 02:07:39;;;;;;;;;30.40;30.40;;;;;10.79;100.00;100209.81;2104450;27;46269;-61
2023/11/29 02:08:40;;;;;;;;;32.25;30.75;;;;;10.82;100.00;100211.53;2105138;27;46533;-63
2023/11/29 02:09:41;;;;;;;;;21.75;19.00;;;;;10.78;100.00;100213.38;2104158;28;46335;-64
2023/11/29 02:10:41;;;;;;;;;32.25;29.75;;;;;10.77;100.00;100210.78;2102319;28;46193;-64
2023/11/29 02:11:44;;;;;;;;;34.25;30.25;;;;;10.71;100.00;100203.91;2109905;27;46312;-63
2023/11/29 02:12:44;;;;;;;;;34.00;31.20;;;;;10.70;100.00;100204.81;2104689;28;46690;-64
2023/11/29 02:13:44;;;;;;;;;31.25;31.25;;;;;10.71;100.00;100206.53;2104001;28;46653;-62
2023/11/29 02:14:45;;;;;;;;;28.25;25.00;;;;;10.70;100.00;100203.94;2086668;28;46545;-62
2023/11/29 02:15:45;;;;;;;;;29.75;29.25;;;;;10.70;100.00;100202.16;2087153;28;46303;-63
2023/11/29 02:16:45;;;;;;;;;27.00;26.75;;;;;10.70;100.00;100206.59;2104482;28;46251;-65
2023/11/29 02:17:46;;;;;;;;;25.50;22.75;;;;;10.70;100.00;100202.16;2104946;27;46831;-65
2023/11/29 02:18:46;;;;;;;;;32.00;29.00;;;;;10.71;100.00;100208.34;2104797;27;46355;-64
2023/11/29 02:19:46;;;;;;;;;31.50;29.50;;;;;10.70;100.00;100203.94;2104690;27;46681;-62
2023/11/29 02:20:47;;;;;;;;;28.50;23.75;;;;;10.68;100.00;100197.81;2103675;28;46723;-62
2023/11/29 02:21:47;;;;;;;;;27.50;25.50;;;;;10.69;100.00;100202.22;2101437;28;46742;-64
2023/11/29 02:22:58;;;;;;;;;28.25;26.75;;;;;10.69;100.00;100202.22;2105082;27;46718;-65
2023/11/29 02:24:04;;;;;;;;;29.00;26.80;;;;;10.69;100.00;100207.50;2104834;27;46391;-64
2023/11/29 02:25:05;;;;;;;;;26.80;25.80;;;;;10.68;100.00;100208.44;2104896;27;46464;-65
2023/11/29 02:26:05;;;;;;;;;19.75;19.00;;;;;10.69;100.00;100207.50;2104773;28;46831;-62
2023/11/29 02:27:05;;;;;;;;;25.00;24.50;;;;;10.71;100.00;100214.50;2104573;28;46642;-63
2023/11/29 02:28:06;;;;;;;;;28.50;26.25;;;;;10.73;100.00;100209.16;2104821;28;46598;-63
2023/11/29 02:29:06;;;;;;;;;30.50;26.50;;;;;10.74;100.00;100210.88;2103917;28;46794;-62
2023/11/29 02:30:07;;;;;;;;;25.50;25.00;;;;;10.76;100.00;100209.03;2104617;27;46247;-62
2023/11/29 02:31:07;;;;;;;;;26.20;23.60;;;;;10.75;100.00;100212.63;2103938;28;46591;-62
2023/11/29 02:32:08;;;;;;;;;27.25;26.25;;;;;10.75;100.00;100204.66;2104485;28;46660;-62
2023/11/29 02:33:08;;;;;;;;;23.00;22.00;;;;;10.76;100.00;100201.97;2104708;28;46324;-63
2023/11/29 02:34:08;;;;;;;;;26.25;23.50;;;;;10.76;100.00;100209.03;2105045;27;46784;-62
2023/11/29 02:35:09;;;;;;;;;29.00;27.50;;;;;10.76;100.00;100207.25;2105046;27;46655;-65
2023/11/29 02:36:09;;;;;;;;;28.50;27.50;;;;;10.76;100.00;100212.56;2105468;27;46765;-63
2023/11/29 02:37:10;;;;;;;;;18.50;17.50;;;;;10.77;100.00;100211.66;2104094;27;46479;-61
2023/11/29 02:38:10;;;;;;;;;22.50;21.50;;;;;10.77;100.00;100205.47;2103892;28;46288;-62
2023/11/29 02:39:10;;;;;;;;;25.75;22.00;;;;;10.78;100.00;100199.25;2104439;27;46626;-64
2023/11/29 02:40:11;;;;;;;;;25.75;22.75;;;;;10.79;100.00;100200.97;2104172;28;46352;-65
2023/11/29 02:41:11;;;;;;;;;27.25;26.00;;;;;10.83;100.00;100202.66;2104642;27;46609;-63
2023/11/29 02:42:11;;;;;;;;;26.50;26.50;;;;;10.85;100.00;100201.69;2104675;28;46647;-65
2023/11/29 02:43:12;;;;;;;;;22.00;22.00;;;;;10.86;100.00;100203.41;2104763;27;46453;-63
2023/11/29 02:44:12;;;;;;;;;26.50;26.00;;;;;10.88;100.00;100198.06;2104698;28;46891;-63
2023/11/29 02:45:12;;;;;;;;;26.50;23.75;;;;;10.88;100.00;100196.25;2104252;28;46558;-64
2023/11/29 02:46:13;;;;;;;;;25.75;24.25;;;;;10.88;100.00;100196.25;2104159;28;46274;-64
2023/11/29 02:47:13;;;;;;;;;24.00;21.25;;;;;10.87;100.00;100198.97;2104314;28;45721;-63
2023/11/29 02:48:13;;;;;;;;;27.25;23.75;;;;;10.87;100.00;100199.84;2104974;28;46674;-63
2023/11/29 02:49:14;;;;;;;;;26.00;25.25;;;;;10.86;100.00;100182.19;2104588;28;46151;-63
2023/11/29 02:50:14;;;;;;;;;28.50;25.25;;;;;10.87;100.00;100191.00;2105034;27;46703;-63
2023/11/29 02:51:15;;;;;;;;;23.25;23.00;;;;;10.88;100.00;100195.41;2104725;27;45989;-62
2023/11/29 02:52:16;;;;;;;;;26.00;26.00;;;;;10.88;100.00;100188.31;2104369;27;46631;-63
2023/11/29 02:53:16;;;;;;;;;24.25;21.00;;;;;10.88;100.00;100190.09;2106129;27;46565;-63
2023/11/29 02:54:18;;;;;;;;;25.00;25.00;;;;;10.87;100.00;100183.03;2104563;28;46266;-63
2023/11/29 02:55:18;;;;;;;;;26.80;23.80;;;;;10.87;100.00;100181.25;2100553;27;46616;-63
2023/11/29 02:56:19;;;;;;;;;25.50;25.00;;;;;10.89;100.00;100178.56;2105163;28;46213;-62
2023/11/29 02:57:19;;;;;;;;;19.50;18.75;;;;;10.90;100.00;100177.63;2104729;28;46203;-64
2023/11/29 02:58:19;;;;;;;;;27.75;27.00;;;;;10.89;100.00;100173.25;2106062;27;46256;-63
2023/11/29 02:59:20;;;;;;;;;26.00;25.00;;;;;10.89;100.00;100170.59;2106241;28;46188;-63
2023/11/29 03:00:20;;;;;;;;;26.25;26.25;;;;;10.90;100.00;100173.19;2106173;28;46498;-63
2023/11/29 03:01:20;;;;;;;;;22.75;21.00;;;;;10.90;100.00;100167.00;2106552;28;46206;-63
2023/11/29 03:02:21;;;;;;;;;22.75;22.75;;;;;10.89;100.00;100173.25;2096138;28;46890;-62
2023/11/29 03:03:21;;;;;;;;;22.75;22.75;;;;;10.90;100.00;100177.63;2097429;28;46800;-62
2023/11/29 03:04:21;;;;;;;;;23.50;19.75;;;;;10.90;100.00;100175.84;2106045;28;46004;-62
2023/11/29 03:05:22;;;;;;;;;22.75;22.00;;;;;10.93;100.00;100176.69;2106296;27;46955;-64
2023/11/29 03:06:22;;;;;;;;;24.50;23.50;;;;;10.93;100.00;100182.00;2106136;28;46643;-63
2023/11/29 03:07:22;;;;;;;;;23.00;20.75;;;;;10.94;100.00;100178.44;2104561;28;46448;-64
2023/11/29 03:08:23;;;;;;;;;19.75;19.75;;;;;10.87;100.00;100178.59;2106202;27;46472;-62
2023/11/29 03:09:23;;;;;;;;;25.50;22.75;;;;;10.94;100.00;100178.44;2106721;27;45718;-63
2023/11/29 03:10:23;;;;;;;;;21.25;20.75;;;;;10.93;100.00;100179.34;2111191;27;47110;-63
2023/11/29 03:11:24;;;;;;;;;19.75;17.50;;;;;10.94;100.00;100178.44;2106290;27;46376;-62
2023/11/29 03:12:24;;;;;;;;;19.50;18.25;;;;;10.93;100.00;100166.94;2105814;27;46203;-63
2023/11/29 03:13:28;;;;;;;;;24.25;20.50;;;;;10.96;100.00;100168.63;2103926;27;46716;-63
2023/11/29 03:14:28;;;;;;;;;21.80;21.40;;;;;10.96;100.00;100173.94;2104472;27;46759;-64
2023/11/29 03:15:28;;;;;;;;;24.75;22.00;;;;;10.97;100.00;100173.88;2105676;28;45973;-63
2023/11/29 03:16:29;;;;;;;;;19.50;19.50;;;;;10.97;100.00;100165.06;2105550;27;46455;-64
2023/11/29 03:17:29;;;;;;;;;22.00;20.75;;;;;10.97;100.00;100167.69;2106131;28;46335;-62
2023/11/29 03:18:30;;;;;;;;;19.50;18.50;;;;;11.02;100.00;100161.31;2105666;27;46275;-63
2023/11/29 03:19:30;;;;;;;;;20.20;19.40;;;;;10.97;100.00;100155.28;2105964;27;47139;-61
2023/11/29 03:20:30;;;;;;;;;18.00;17.00;;;;;10.96;100.00;100156.22;2105615;28;46601;-63
2023/11/29 03:21:31;;;;;;;;;19.00;18.25;;;;;10.96;100.00;100156.22;2105948;27;46099;-64
2023/11/29 03:22:31;;;;;;;;;18.25;18.25;;;;;10.96;100.00;100163.31;2105942;28;46797;-62
2023/11/29 03:23:31;;;;;;;;;19.75;19.50;;;;;10.97;100.00;100159.75;2105894;28;46656;-61
2023/11/29 03:24:32;;;;;;;;;21.00;21.00;;;;;10.95;100.00;100162.44;2106090;27;46281;-62
2023/11/29 03:25:32;;;;;;;;;18.00;17.25;;;;;10.97;100.00;100157.09;2105299;28;46832;-61
2023/11/29 03:26:32;;;;;;;;;20.50;20.50;;;;;10.97;100.00;100154.44;2105588;28;45841;-64
2023/11/29 03:27:33;;;;;;;;;22.75;20.50;;;;;10.98;100.00;100153.50;2106318;27;46248;-63
2023/11/29 03:28:33;;;;;;;;;16.00;16.00;;;;;11.05;100.00;100157.69;2105919;27;46493;-64
2023/11/29 03:29:33;;;;;;;;;23.00;21.00;;;;;11.07;100.00;100158.53;2105126;27;46307;-64
2023/11/29 03:30:34;;;;;;;;;19.00;15.75;;;;;11.08;100.00;100157.59;2106112;27;46327;-59
2023/11/29 03:31:34;;;;;;;;;21.75;18.75;;;;;11.09;100.00;100159.34;2105643;28;46795;-63
2023/11/29 03:32:34;;;;;;;;;17.00;17.00;;;;;11.08;100.00;100155.81;2103791;28;46379;-62
2023/11/29 03:33:35;;;;;;;;;20.75;20.25;;;;;11.09;100.00;100154.91;2105778;28;44986;-63
2023/11/29 03:34:35;;;;;;;;;2.00;1.00;;;;;11.11;100.00;100149.53;2106344;27;46202;-63
2023/11/29 03:35:35;;;;;;;;;22.00;20.00;;;;;11.11;100.00;100144.22;2106068;27;46855;-64
2023/11/29 03:36:36;;;;;;;;;19.75;19.75;;;;;11.12;100.00;100145.97;2106650;27;46359;-62
2023/11/29 03:37:36;;;;;;;;;24.00;19.75;;;;;11.13;100.00;100151.22;2105521;27;46667;-62
2023/11/29 03:38:36;;;;;;;;;20.25;20.25;;;;;11.13;100.00;100143.25;2105982;27;46245;-62
2023/11/29 03:39:37;;;;;;;;;21.50;21.25;;;;;11.14;100.00;100144.97;2105748;27;45850;-62
2023/11/29 03:40:37;;;;;;;;;23.25;21.50;;;;;11.14;100.00;100142.31;2105786;27;46651;-61
2023/11/29 03:41:37;;;;;;;;;19.75;18.75;;;;;11.14;100.00;100142.31;2105205;28;46467;-62
2023/11/29 03:42:37;;;;;;;;;24.00;21.00;;;;;11.12;100.00;100138.84;2105228;28;46125;-64
2023/11/29 03:43:38;;;;;;;;;20.00;18.75;;;;;11.11;100.00;100144.22;2105387;28;45857;-62
2023/11/29 03:44:38;;;;;;;;;20.50;19.25;;;;;11.12;100.00;100143.31;2105662;27;46454;-63
2023/11/29 03:45:38;;;;;;;;;15.50;15.50;;;;;11.13;100.00;100142.38;2105738;28;46235;-62
2023/11/29 03:46:39;;;;;;;;;20.00;20.00;;;;;11.12;100.00;100144.16;2105539;27;46253;-60
2023/11/29 03:47:39;;;;;;;;;17.50;17.50;;;;;11.13;100.00;100140.59;2104528;28;47014;-62
2023/11/29 03:48:39;;;;;;;;;20.00;19.00;;;;;11.12;100.00;100133.53;2104897;28;46655;-65
2023/11/29 03:49:40;;;;;;;;;23.50;22.75;;;;;11.13;100.00;100132.63;2103466;28;46179;-63
2023/11/29 03:50:40;;;;;;;;;21.00;20.25;;;;;11.13;100.00;100132.63;2106145;27;46272;-66
2023/11/29 03:51:40;;;;;;;;;23.00;22.75;;;;;11.14;100.00;100131.69;2105347;28;46295;-66
2023/11/29 03:52:41;;;;;;;;;21.50;20.25;;;;;11.13;100.00;100127.31;2105737;28;46745;-63
2023/11/29 03:53:41;;;;;;;;;27.00;21.75;;;;;11.14;100.00;100126.41;2105669;27;46605;-64
2023/11/29 03:54:41;;;;;;;;;24.50;24.50;;;;;11.15;100.00;100124.59;2106138;27;46324;-63
2023/11/29 03:55:42;;;;;;;;;25.25;23.50;;;;;11.16;100.00;100123.69;2096068;28;46552;-64
2023/11/29 03:56:42;;;;;;;;;23.50;20.50;;;;;11.17;100.00;100128.06;2096511;28;46345;-65
2023/11/29 03:57:43;;;;;;;;;18.75;16.75;;;;;11.18;100.00;100127.19;2105275;28;46311;-64
2023/11/29 03:58:43;;;;;;;;;21.25;21.25;;;;;11.17;100.00;100122.75;2105976;27;46325;-62
2023/11/29 03:59:43;;;;;;;;;24.25;24.00;;;;;11.18;100.00;100119.22;2105682;27;46238;-65
2023/11/29 04:00:43;;;;;;;;;25.50;21.00;;;;;11.18;100.00;100120.09;2105657;28;46372;-63
2023/11/29 04:01:44;;;;;;;;;20.00;20.00;;;;;11.19;100.00;100119.16;2105778;28;46907;-63
2023/11/29 04:02:44;;;;;;;;;24.00;20.50;;;;;11.18;100.00;100116.56;2105333;28;46738;-64
2023/11/29 04:03:44;;;;;;;;;21.00;20.00;;;;;11.18;100.00;100119.22;2104206;28;47080;-65
2023/11/29 04:04:45;;;;;;;;;26.25;24.00;;;;;11.17;100.00;100117.44;2105710;28;46634;-62
2023/11/29 04:05:45;;;;;;;;;22.25;22.00;;;;;11.17;100.00;100126.28;2106363;27;46771;-62
2023/11/29 04:06:45;;;;;;;;;27.50;24.50;;;;;11.16;100.00;100121.91;2105543;27;46439;-62
2023/11/29 04:07:46;;;;;;;;;26.25;26.25;;;;;11.15;100.00;100125.47;2104328;27;46964;-63
2023/11/29 04:08:46;;;;;;;;;21.50;21.50;;;;;11.16;100.00;100123.69;2104735;27;46493;-65
2023/11/29 04:09:46;;;;;;;;;22.50;20.75;;;;;11.16;100.00;100129.84;2104996;27;46467;-65
2023/11/29 04:10:47;;;;;;;;;24.00;23.25;;;;;11.15;100.00;100125.47;2108432;27;45922;-65
2023/11/29 04:11:47;;;;;;;;;25.75;24.00;;;;;11.14;100.00;100129.06;2105654;27;46220;-64
2023/11/29 04:12:47;;;;;;;;;23.75;23.75;;;;;11.15;100.00;100125.47;2105080;27;46446;-64
2023/11/29 04:13:48;;;;;;;;;26.75;25.25;;;;;11.15;100.00;100119.28;2105226;28;46095;-63
2023/11/29 04:14:48;;;;;;;;;27.75;27.75;;;;;11.14;100.00;100117.56;2097262;28;46772;-64
2023/11/29 04:15:48;;;;;;;;;25.00;21.50;;;;;11.15;100.00;100113.97;2102075;28;46488;-61
2023/11/29 04:16:49;;;;;;;;;25.50;24.25;;;;;11.13;100.00;100110.50;2105229;27;46389;-65
2023/11/29 04:17:49;;;;;;;;;24.75;23.50;;;;;11.12;100.00;100119.41;2096564;28;46198;-63
2023/11/29 04:18:51;;;;;;;;;26.75;26.75;;;;;11.13;100.00;100121.13;2104998;28;46913;-64
2023/11/29 04:19:51;;;;;;;;;25.20;24.40;;;;;11.12;100.00;100114.97;2105268;27;46318;-63
2023/11/29 04:20:52;;;;;;;;;26.25;24.50;;;;;11.11;100.00;100113.22;2104932;28;47075;-62
2023/11/29 04:21:52;;;;;;;;;24.00;23.00;;;;;11.13;100.00;100108.72;2105242;28;46363;-62
2023/11/29 04:22:52;;;;;;;;;21.25;20.75;;;;;11.13;100.00;100111.38;2104976;28;46805;-63
2023/11/29 04:23:53;;;;;;;;;24.75;20.75;;;;;11.15;100.00;100108.66;2104938;28;47132;-65
2023/11/29 04:24:53;;;;;;;;;21.50;21.50;;;;;11.09;100.00;100104.44;2106129;27;46454;-65
2023/11/29 04:25:55;;;;;;;;;23.75;20.00;;;;;11.15;100.00;100101.56;2105665;27;46327;-63
2023/11/29 04:26:56;;;;;;;;;25.40;24.00;;;;;11.15;100.00;100108.66;2105358;28;46984;-65
2023/11/29 04:27:56;;;;;;;;;21.50;20.75;;;;;11.14;100.00;100102.50;2095773;28;46373;-63
2023/11/29 04:28:57;;;;;;;;;25.50;23.00;;;;;11.13;100.00;100103.41;2096282;28;46852;-63
2023/11/29 04:29:57;;;;;;;;;23.40;22.60;;;;;11.15;100.00;100111.31;2103950;27;47041;-60
2023/11/29 04:30:58;;;;;;;;;19.00;19.00;;;;;11.16;100.00;100113.06;2103123;28;47029;-60
2023/11/29 04:31:58;;;;;;;;;25.75;22.75;;;;;11.14;100.00;100107.81;2104368;28;46121;-64